sensor_id;sensor_type;location;lat;lon;timestamp;temperature;humidity
20479;DHT22;10398;52.490;13.434;2023-08-12T00:00:19;19.60;99.90
20479;DHT22;10398;52.490;13.434;2023-08-12T00:02:46;19.60;99.90
20479;DHT22;10398;52.490;13.434;2023-08-12T00:05:12;19.50;99.90
20479;DHT22;10398;52.490;13.434;2023-08-12T00:07:39;19.50;99.90
20479;DHT22;10398;52.490;13.434;2023-08-12T00:10:10;19.50;99.90
20479;DHT22;10398;52.490;13.434;2023-08-12T00:12:36;19.50;99.90
20479;DHT22;10398;52.490;13.434;2023-08-12T00:15:03;19.40;99.90
20479;DHT22;10398;52.490;13.434;2023-08-12T00:17:30;19.40;99.90
20479;DHT22;10398;52.490;13.434;2023-08-12T00:19:56;19.40;99.90
20479;DHT22;10398;52.490;13.434;2023-08-12T00:22:22;19.40;99.90
20479;DHT22;10398;52.490;13.434;2023-08-12T00:24:48;19.30;99.90
20479;DHT22;10398;52.490;13.434;2023-08-12T00:27:14;19.30;99.90
20479;DHT22;10398;52.490;13.434;2023-08-12T00:29:39;19.30;99.90
20479;DHT22;10398;52.490;13.434;2023-08-12T00:32:05;19.30;99.90
20479;DHT22;10398;52.490;13.434;2023-08-12T00:34:31;19.30;99.90
20479;DHT22;10398;52.490;13.434;2023-08-12T00:36:57;19.20;99.90
20479;DHT22;10398;52.490;13.434;2023-08-12T00:39:22;19.20;99.90
20479;DHT22;10398;52.490;13.434;2023-08-12T00:41:48;19.20;99.90
20479;DHT22;10398;52.490;13.434;2023-08-12T00:44:14;19.20;99.90
20479;DHT22;10398;52.490;13.434;2023-08-12T00:46:41;19.20;99.90
20479;DHT22;10398;52.490;13.434;2023-08-12T00:49:08;19.20;99.90
20479;DHT22;10398;52.490;13.434;2023-08-12T00:51:34;19.20;99.90
20479;DHT22;10398;52.490;13.434;2023-08-12T00:54:03;19.10;99.90
20479;DHT22;10398;52.490;13.434;2023-08-12T00:56:31;19.10;99.90
20479;DHT22;10398;52.490;13.434;2023-08-12T00:58:59;19.10;99.90
20479;DHT22;10398;52.490;13.434;2023-08-12T01:01:25;19.10;99.90
20479;DHT22;10398;52.490;13.434;2023-08-12T01:03:52;19.10;99.90
20479;DHT22;10398;52.490;13.434;2023-08-12T01:06:17;19.10;99.90
20479;DHT22;10398;52.490;13.434;2023-08-12T01:08:43;19.10;99.90
20479;DHT22;10398;52.490;13.434;2023-08-12T01:14:08;19.10;99.90
20479;DHT22;10398;52.490;13.434;2023-08-12T01:16:38;19.20;99.90
20479;DHT22;10398;52.490;13.434;2023-08-12T01:19:06;19.20;99.90
20479;DHT22;10398;52.490;13.434;2023-08-12T01:21:38;19.10;99.90
20479;DHT22;10398;52.490;13.434;2023-08-12T01:24:06;19.10;99.90
20479;DHT22;10398;52.490;13.434;2023-08-12T01:26:32;19.00;99.90
20479;DHT22;10398;52.490;13.434;2023-08-12T01:28:58;19.00;99.90
20479;DHT22;10398;52.490;13.434;2023-08-12T01:31:50;18.90;99.90
20479;DHT22;10398;52.490;13.434;2023-08-12T01:34:31;18.90;99.90
20479;DHT22;10398;52.490;13.434;2023-08-12T01:37:04;18.90;99.90
20479;DHT22;10398;52.490;13.434;2023-08-12T01:39:31;18.90;99.90
20479;DHT22;10398;52.490;13.434;2023-08-12T01:41:58;18.90;99.90
20479;DHT22;10398;52.490;13.434;2023-08-12T01:44:25;18.90;99.90
20479;DHT22;10398;52.490;13.434;2023-08-12T01:46:50;18.80;99.90
20479;DHT22;10398;52.490;13.434;2023-08-12T01:49:16;18.80;99.90
20479;DHT22;10398;52.490;13.434;2023-08-12T01:51:42;18.80;99.90
20479;DHT22;10398;52.490;13.434;2023-08-12T01:54:07;18.80;99.90
20479;DHT22;10398;52.490;13.434;2023-08-12T01:56:33;18.70;99.90
20479;DHT22;10398;52.490;13.434;2023-08-12T01:58:58;18.70;99.90
20479;DHT22;10398;52.490;13.434;2023-08-12T02:01:24;18.70;99.90
20479;DHT22;10398;52.490;13.434;2023-08-12T02:03:50;18.70;99.90
20479;DHT22;10398;52.490;13.434;2023-08-12T02:06:15;18.70;99.90
20479;DHT22;10398;52.490;13.434;2023-08-12T02:08:41;18.60;99.90
20479;DHT22;10398;52.490;13.434;2023-08-12T02:11:07;18.70;99.90
20479;DHT22;10398;52.490;13.434;2023-08-12T02:13:32;18.70;99.90
20479;DHT22;10398;52.490;13.434;2023-08-12T02:15:58;18.60;99.90
20479;DHT22;10398;52.490;13.434;2023-08-12T02:18:23;18.60;99.90
20479;DHT22;10398;52.490;13.434;2023-08-12T02:20:49;18.60;99.90
20479;DHT22;10398;52.490;13.434;2023-08-12T02:23:15;18.60;99.90
20479;DHT22;10398;52.490;13.434;2023-08-12T02:25:40;18.60;99.90
20479;DHT22;10398;52.490;13.434;2023-08-12T02:28:06;18.60;99.90
20479;DHT22;10398;52.490;13.434;2023-08-12T02:30:32;18.60;99.90
20479;DHT22;10398;52.490;13.434;2023-08-12T02:32:58;18.50;99.90
20479;DHT22;10398;52.490;13.434;2023-08-12T02:35:24;18.60;99.90
20479;DHT22;10398;52.490;13.434;2023-08-12T02:37:49;18.60;99.90
20479;DHT22;10398;52.490;13.434;2023-08-12T02:40:15;18.60;99.90
20479;DHT22;10398;52.490;13.434;2023-08-12T02:42:41;18.60;99.90
20479;DHT22;10398;52.490;13.434;2023-08-12T02:45:07;18.60;99.90
20479;DHT22;10398;52.490;13.434;2023-08-12T02:47:32;18.60;99.90
20479;DHT22;10398;52.490;13.434;2023-08-12T02:49:58;18.60;99.90
20479;DHT22;10398;52.490;13.434;2023-08-12T02:52:24;18.60;99.90
20479;DHT22;10398;52.490;13.434;2023-08-12T02:54:49;18.60;99.90
20479;DHT22;10398;52.490;13.434;2023-08-12T02:57:15;18.50;99.90
20479;DHT22;10398;52.490;13.434;2023-08-12T02:59:41;18.50;99.90
20479;DHT22;10398;52.490;13.434;2023-08-12T03:02:07;18.50;99.90
20479;DHT22;10398;52.490;13.434;2023-08-12T03:04:32;18.50;99.90
20479;DHT22;10398;52.490;13.434;2023-08-12T03:06:58;18.50;99.90
20479;DHT22;10398;52.490;13.434;2023-08-12T03:09:23;18.40;99.90
20479;DHT22;10398;52.490;13.434;2023-08-12T03:11:49;18.40;99.90
20479;DHT22;10398;52.490;13.434;2023-08-12T03:14:15;18.40;99.90
20479;DHT22;10398;52.490;13.434;2023-08-12T03:16:40;18.40;99.90
20479;DHT22;10398;52.490;13.434;2023-08-12T03:19:06;18.30;99.90
20479;DHT22;10398;52.490;13.434;2023-08-12T03:21:32;18.30;99.90
20479;DHT22;10398;52.490;13.434;2023-08-12T03:23:57;18.30;99.90
20479;DHT22;10398;52.490;13.434;2023-08-12T03:26:23;18.30;99.90
20479;DHT22;10398;52.490;13.434;2023-08-12T03:28:48;18.30;99.90
20479;DHT22;10398;52.490;13.434;2023-08-12T03:31:14;18.30;99.90
20479;DHT22;10398;52.490;13.434;2023-08-12T03:33:40;18.30;99.90
20479;DHT22;10398;52.490;13.434;2023-08-12T03:36:05;18.30;99.90
20479;DHT22;10398;52.490;13.434;2023-08-12T03:38:31;18.30;99.90
20479;DHT22;10398;52.490;13.434;2023-08-12T03:40:57;18.30;99.90
20479;DHT22;10398;52.490;13.434;2023-08-12T03:43:23;18.30;99.90
20479;DHT22;10398;52.490;13.434;2023-08-12T03:45:48;18.20;99.90
20479;DHT22;10398;52.490;13.434;2023-08-12T03:48:14;18.30;99.90
20479;DHT22;10398;52.490;13.434;2023-08-12T03:50:40;18.20;99.90
20479;DHT22;10398;52.490;13.434;2023-08-12T03:53:06;18.20;99.90
20479;DHT22;10398;52.490;13.434;2023-08-12T03:55:34;18.20;99.90
20479;DHT22;10398;52.490;13.434;2023-08-12T03:58:00;18.10;99.90
20479;DHT22;10398;52.490;13.434;2023-08-12T04:00:26;18.20;99.90
20479;DHT22;10398;52.490;13.434;2023-08-12T04:02:52;18.10;99.90
20479;DHT22;10398;52.490;13.434;2023-08-12T04:05:18;18.10;99.90
20479;DHT22;10398;52.490;13.434;2023-08-12T04:07:43;18.10;99.90
20479;DHT22;10398;52.490;13.434;2023-08-12T04:10:09;18.00;99.90
20479;DHT22;10398;52.490;13.434;2023-08-12T04:12:35;18.00;99.90
20479;DHT22;10398;52.490;13.434;2023-08-12T04:15:01;18.00;99.90
20479;DHT22;10398;52.490;13.434;2023-08-12T04:17:29;18.00;99.90
20479;DHT22;10398;52.490;13.434;2023-08-12T04:19:55;17.90;99.90
20479;DHT22;10398;52.490;13.434;2023-08-12T04:22:21;17.90;99.90
20479;DHT22;10398;52.490;13.434;2023-08-12T04:24:46;17.90;99.90
20479;DHT22;10398;52.490;13.434;2023-08-12T04:27:12;17.90;99.90
20479;DHT22;10398;52.490;13.434;2023-08-12T04:29:37;17.90;99.90
20479;DHT22;10398;52.490;13.434;2023-08-12T04:32:03;18.00;99.90
20479;DHT22;10398;52.490;13.434;2023-08-12T04:34:29;18.00;99.90
20479;DHT22;10398;52.490;13.434;2023-08-12T04:36:55;17.90;99.90
20479;DHT22;10398;52.490;13.434;2023-08-12T04:39:20;17.90;99.90
20479;DHT22;10398;52.490;13.434;2023-08-12T04:41:47;17.90;99.90
20479;DHT22;10398;52.490;13.434;2023-08-12T04:44:13;17.90;99.90
20479;DHT22;10398;52.490;13.434;2023-08-12T04:46:38;17.90;99.90
20479;DHT22;10398;52.490;13.434;2023-08-12T04:49:04;17.90;99.90
20479;DHT22;10398;52.490;13.434;2023-08-12T04:51:30;17.90;99.90
20479;DHT22;10398;52.490;13.434;2023-08-12T04:53:56;17.90;99.90
20479;DHT22;10398;52.490;13.434;2023-08-12T04:56:22;17.90;99.90
20479;DHT22;10398;52.490;13.434;2023-08-12T04:58:48;17.90;99.90
20479;DHT22;10398;52.490;13.434;2023-08-12T05:01:14;18.00;99.90
20479;DHT22;10398;52.490;13.434;2023-08-12T05:03:39;18.00;99.90
20479;DHT22;10398;52.490;13.434;2023-08-12T05:06:05;18.10;99.90
20479;DHT22;10398;52.490;13.434;2023-08-12T05:08:31;18.20;99.90
20479;DHT22;10398;52.490;13.434;2023-08-12T05:10:56;18.30;99.90
20479;DHT22;10398;52.490;13.434;2023-08-12T05:13:22;18.30;99.90
20479;DHT22;10398;52.490;13.434;2023-08-12T05:15:49;18.40;99.90
20479;DHT22;10398;52.490;13.434;2023-08-12T05:18:15;18.40;99.90
20479;DHT22;10398;52.490;13.434;2023-08-12T05:20:42;18.40;99.90
20479;DHT22;10398;52.490;13.434;2023-08-12T05:23:08;18.50;99.90
20479;DHT22;10398;52.490;13.434;2023-08-12T05:25:33;18.60;99.90
20479;DHT22;10398;52.490;13.434;2023-08-12T05:27:59;18.70;99.90
20479;DHT22;10398;52.490;13.434;2023-08-12T05:30:25;18.70;99.90
20479;DHT22;10398;52.490;13.434;2023-08-12T05:32:50;18.80;99.90
20479;DHT22;10398;52.490;13.434;2023-08-12T05:35:16;18.90;99.90
20479;DHT22;10398;52.490;13.434;2023-08-12T05:37:42;19.00;99.90
20479;DHT22;10398;52.490;13.434;2023-08-12T05:40:10;19.10;99.90
20479;DHT22;10398;52.490;13.434;2023-08-12T05:42:37;19.20;99.90
20479;DHT22;10398;52.490;13.434;2023-08-12T05:45:03;19.30;99.90
20479;DHT22;10398;52.490;13.434;2023-08-12T05:47:29;19.30;99.90
20479;DHT22;10398;52.490;13.434;2023-08-12T05:49:55;19.40;99.90
20479;DHT22;10398;52.490;13.434;2023-08-12T05:52:20;19.50;99.90
20479;DHT22;10398;52.490;13.434;2023-08-12T05:54:46;19.50;99.90
20479;DHT22;10398;52.490;13.434;2023-08-12T05:57:12;19.60;99.90
20479;DHT22;10398;52.490;13.434;2023-08-12T05:59:37;19.60;99.90
20479;DHT22;10398;52.490;13.434;2023-08-12T06:02:03;19.70;99.90
20479;DHT22;10398;52.490;13.434;2023-08-12T06:04:29;19.70;99.90
20479;DHT22;10398;52.490;13.434;2023-08-12T06:06:55;19.70;99.90
20479;DHT22;10398;52.490;13.434;2023-08-12T06:09:21;19.80;99.90
20479;DHT22;10398;52.490;13.434;2023-08-12T06:11:47;19.80;99.90
20479;DHT22;10398;52.490;13.434;2023-08-12T06:14:12;19.90;99.90
20479;DHT22;10398;52.490;13.434;2023-08-12T06:16:38;19.90;99.90
20479;DHT22;10398;52.490;13.434;2023-08-12T06:19:04;20.00;99.90
20479;DHT22;10398;52.490;13.434;2023-08-12T06:21:29;20.00;99.90
20479;DHT22;10398;52.490;13.434;2023-08-12T06:23:55;20.10;99.90
20479;DHT22;10398;52.490;13.434;2023-08-12T06:26:21;20.20;99.90
20479;DHT22;10398;52.490;13.434;2023-08-12T06:28:47;20.20;99.90
20479;DHT22;10398;52.490;13.434;2023-08-12T06:31:12;20.30;99.90
20479;DHT22;10398;52.490;13.434;2023-08-12T06:33:38;20.30;99.90
20479;DHT22;10398;52.490;13.434;2023-08-12T06:36:04;20.30;99.90
20479;DHT22;10398;52.490;13.434;2023-08-12T06:38:30;20.40;99.90
20479;DHT22;10398;52.490;13.434;2023-08-12T06:40:55;20.50;99.90
20479;DHT22;10398;52.490;13.434;2023-08-12T06:43:21;20.50;99.90
20479;DHT22;10398;52.490;13.434;2023-08-12T06:45:46;20.50;99.90
20479;DHT22;10398;52.490;13.434;2023-08-12T06:48:12;20.60;99.90
20479;DHT22;10398;52.490;13.434;2023-08-12T06:50:38;20.60;99.90
20479;DHT22;10398;52.490;13.434;2023-08-12T06:53:03;20.70;99.90
20479;DHT22;10398;52.490;13.434;2023-08-12T06:55:29;20.70;99.90
20479;DHT22;10398;52.490;13.434;2023-08-12T06:57:55;20.70;99.90
20479;DHT22;10398;52.490;13.434;2023-08-12T07:00:21;20.70;99.90
20479;DHT22;10398;52.490;13.434;2023-08-12T07:02:46;20.80;99.90
20479;DHT22;10398;52.490;13.434;2023-08-12T07:05:12;20.80;99.90
20479;DHT22;10398;52.490;13.434;2023-08-12T07:07:38;20.80;99.90
20479;DHT22;10398;52.490;13.434;2023-08-12T07:10:04;20.90;99.90
20479;DHT22;10398;52.490;13.434;2023-08-12T07:12:31;20.90;99.90
20479;DHT22;10398;52.490;13.434;2023-08-12T07:14:58;20.90;99.90
20479;DHT22;10398;52.490;13.434;2023-08-12T07:17:23;20.90;99.90
20479;DHT22;10398;52.490;13.434;2023-08-12T07:19:49;20.90;99.90
20479;DHT22;10398;52.490;13.434;2023-08-12T07:22:15;20.90;99.90
20479;DHT22;10398;52.490;13.434;2023-08-12T07:24:44;21.00;99.90
20479;DHT22;10398;52.490;13.434;2023-08-12T07:27:10;21.10;99.90
20479;DHT22;10398;52.490;13.434;2023-08-12T07:29:36;21.20;99.90
20479;DHT22;10398;52.490;13.434;2023-08-12T07:32:01;21.30;99.90
20479;DHT22;10398;52.490;13.434;2023-08-12T07:34:27;21.40;99.90
20479;DHT22;10398;52.490;13.434;2023-08-12T07:36:53;21.50;99.90
20479;DHT22;10398;52.490;13.434;2023-08-12T07:39:18;21.60;99.90
20479;DHT22;10398;52.490;13.434;2023-08-12T07:41:44;21.70;99.90
20479;DHT22;10398;52.490;13.434;2023-08-12T07:44:10;21.70;99.90
20479;DHT22;10398;52.490;13.434;2023-08-12T07:46:35;21.80;99.90
20479;DHT22;10398;52.490;13.434;2023-08-12T07:49:01;21.70;99.90
20479;DHT22;10398;52.490;13.434;2023-08-12T07:51:27;21.80;99.90
20479;DHT22;10398;52.490;13.434;2023-08-12T07:53:52;21.80;99.90
20479;DHT22;10398;52.490;13.434;2023-08-12T07:56:18;21.80;99.90
20479;DHT22;10398;52.490;13.434;2023-08-12T07:58:44;21.90;99.90
20479;DHT22;10398;52.490;13.434;2023-08-12T08:01:11;21.90;99.90
20479;DHT22;10398;52.490;13.434;2023-08-12T08:03:36;21.90;99.90
20479;DHT22;10398;52.490;13.434;2023-08-12T08:06:02;22.00;99.90
20479;DHT22;10398;52.490;13.434;2023-08-12T08:08:28;22.00;99.90
20479;DHT22;10398;52.490;13.434;2023-08-12T08:10:53;22.10;99.90
20479;DHT22;10398;52.490;13.434;2023-08-12T08:13:19;22.10;99.90
20479;DHT22;10398;52.490;13.434;2023-08-12T08:15:45;22.20;99.90
20479;DHT22;10398;52.490;13.434;2023-08-12T08:18:11;22.20;99.90
20479;DHT22;10398;52.490;13.434;2023-08-12T08:20:37;22.30;99.90
20479;DHT22;10398;52.490;13.434;2023-08-12T08:23:02;22.40;99.90
20479;DHT22;10398;52.490;13.434;2023-08-12T08:25:28;22.40;99.90
20479;DHT22;10398;52.490;13.434;2023-08-12T08:27:54;22.40;99.90
20479;DHT22;10398;52.490;13.434;2023-08-12T08:30:19;22.40;99.90
20479;DHT22;10398;52.490;13.434;2023-08-12T08:32:45;22.40;99.90
20479;DHT22;10398;52.490;13.434;2023-08-12T08:35:12;22.40;99.90
20479;DHT22;10398;52.490;13.434;2023-08-12T08:37:37;22.40;99.90
20479;DHT22;10398;52.490;13.434;2023-08-12T08:40:03;22.40;99.90
20479;DHT22;10398;52.490;13.434;2023-08-12T08:42:29;22.40;99.90
20479;DHT22;10398;52.490;13.434;2023-08-12T08:45:00;22.40;99.90
20479;DHT22;10398;52.490;13.434;2023-08-12T08:47:27;22.40;99.90
20479;DHT22;10398;52.490;13.434;2023-08-12T08:49:55;22.40;99.90
20479;DHT22;10398;52.490;13.434;2023-08-12T08:52:23;22.40;99.90
20479;DHT22;10398;52.490;13.434;2023-08-12T08:54:49;22.40;99.90
20479;DHT22;10398;52.490;13.434;2023-08-12T08:57:15;22.40;99.90
20479;DHT22;10398;52.490;13.434;2023-08-12T08:59:41;22.40;99.90
20479;DHT22;10398;52.490;13.434;2023-08-12T09:02:13;22.40;99.90
20479;DHT22;10398;52.490;13.434;2023-08-12T09:04:41;22.40;99.90
20479;DHT22;10398;52.490;13.434;2023-08-12T09:07:08;22.40;99.90
20479;DHT22;10398;52.490;13.434;2023-08-12T09:09:34;22.50;99.90
20479;DHT22;10398;52.490;13.434;2023-08-12T09:12:02;22.50;99.90
20479;DHT22;10398;52.490;13.434;2023-08-12T09:14:28;22.50;99.90
20479;DHT22;10398;52.490;13.434;2023-08-12T09:16:55;22.50;99.90
20479;DHT22;10398;52.490;13.434;2023-08-12T09:19:20;22.60;99.90
20479;DHT22;10398;52.490;13.434;2023-08-12T09:21:52;22.60;99.90
20479;DHT22;10398;52.490;13.434;2023-08-12T09:24:26;22.60;99.90
20479;DHT22;10398;52.490;13.434;2023-08-12T09:26:54;22.70;99.90
20479;DHT22;10398;52.490;13.434;2023-08-12T09:29:38;22.80;99.90
20479;DHT22;10398;52.490;13.434;2023-08-12T09:32:18;22.80;99.90
20479;DHT22;10398;52.490;13.434;2023-08-12T09:34:47;23.00;99.90
20479;DHT22;10398;52.490;13.434;2023-08-12T09:37:14;23.30;99.90
20479;DHT22;10398;52.490;13.434;2023-08-12T09:39:41;23.30;99.90
20479;DHT22;10398;52.490;13.434;2023-08-12T09:42:06;23.40;99.90
20479;DHT22;10398;52.490;13.434;2023-08-12T09:44:36;23.50;99.90
20479;DHT22;10398;52.490;13.434;2023-08-12T09:47:02;23.50;99.90
20479;DHT22;10398;52.490;13.434;2023-08-12T09:49:29;23.50;99.90
20479;DHT22;10398;52.490;13.434;2023-08-12T09:51:55;23.50;99.90
20479;DHT22;10398;52.490;13.434;2023-08-12T09:54:21;23.50;99.90
20479;DHT22;10398;52.490;13.434;2023-08-12T09:56:48;23.50;99.90
20479;DHT22;10398;52.490;13.434;2023-08-12T09:59:19;23.50;99.90
20479;DHT22;10398;52.490;13.434;2023-08-12T10:01:49;23.60;99.90
20479;DHT22;10398;52.490;13.434;2023-08-12T10:04:17;23.70;99.90
20479;DHT22;10398;52.490;13.434;2023-08-12T10:06:47;23.70;99.90
20479;DHT22;10398;52.490;13.434;2023-08-12T10:09:15;23.90;99.90
20479;DHT22;10398;52.490;13.434;2023-08-12T10:11:42;23.90;99.90
20479;DHT22;10398;52.490;13.434;2023-08-12T10:14:10;24.00;99.90
20479;DHT22;10398;52.490;13.434;2023-08-12T10:16:36;24.00;99.90
20479;DHT22;10398;52.490;13.434;2023-08-12T10:19:04;23.90;99.90
20479;DHT22;10398;52.490;13.434;2023-08-12T10:21:31;23.90;99.90
20479;DHT22;10398;52.490;13.434;2023-08-12T10:24:02;24.00;99.90
20479;DHT22;10398;52.490;13.434;2023-08-12T10:26:29;24.00;99.90
20479;DHT22;10398;52.490;13.434;2023-08-12T10:28:55;24.00;99.90
20479;DHT22;10398;52.490;13.434;2023-08-12T10:31:21;24.00;99.90
20479;DHT22;10398;52.490;13.434;2023-08-12T10:33:47;24.00;99.90
20479;DHT22;10398;52.490;13.434;2023-08-12T10:36:15;24.10;99.90
20479;DHT22;10398;52.490;13.434;2023-08-12T10:38:44;24.10;99.90
20479;DHT22;10398;52.490;13.434;2023-08-12T10:41:20;24.20;99.90
20479;DHT22;10398;52.490;13.434;2023-08-12T10:43:59;24.20;99.90
20479;DHT22;10398;52.490;13.434;2023-08-12T10:46:29;24.30;99.90
20479;DHT22;10398;52.490;13.434;2023-08-12T10:54:15;24.30;99.90
20479;DHT22;10398;52.490;13.434;2023-08-12T10:57:07;24.30;99.90
20479;DHT22;10398;52.490;13.434;2023-08-12T11:02:33;24.40;99.90
20479;DHT22;10398;52.490;13.434;2023-08-12T11:05:04;24.50;99.90
20479;DHT22;10398;52.490;13.434;2023-08-12T11:07:56;24.60;99.90
20479;DHT22;10398;52.490;13.434;2023-08-12T11:10:27;24.80;99.90
20479;DHT22;10398;52.490;13.434;2023-08-12T11:15:39;24.90;99.90
20479;DHT22;10398;52.490;13.434;2023-08-12T11:18:15;25.00;99.90
20479;DHT22;10398;52.490;13.434;2023-08-12T11:20:42;25.00;99.90
20479;DHT22;10398;52.490;13.434;2023-08-12T11:23:09;25.00;99.90
20479;DHT22;10398;52.490;13.434;2023-08-12T11:25:36;25.00;99.90
20479;DHT22;10398;52.490;13.434;2023-08-12T11:28:04;25.00;99.90
20479;DHT22;10398;52.490;13.434;2023-08-12T11:30:30;25.00;99.90
20479;DHT22;10398;52.490;13.434;2023-08-12T11:32:56;25.00;99.90
20479;DHT22;10398;52.490;13.434;2023-08-12T11:35:23;25.00;99.90
20479;DHT22;10398;52.490;13.434;2023-08-12T11:37:54;25.00;99.90
20479;DHT22;10398;52.490;13.434;2023-08-12T11:40:21;25.00;99.90
20479;DHT22;10398;52.490;13.434;2023-08-12T11:42:49;25.00;99.90
20479;DHT22;10398;52.490;13.434;2023-08-12T11:45:19;24.90;99.90
20479;DHT22;10398;52.490;13.434;2023-08-12T11:47:46;24.90;99.90
20479;DHT22;10398;52.490;13.434;2023-08-12T11:50:22;24.90;99.90
20479;DHT22;10398;52.490;13.434;2023-08-12T11:52:49;24.80;99.90
20479;DHT22;10398;52.490;13.434;2023-08-12T11:55:15;24.80;99.90
20479;DHT22;10398;52.490;13.434;2023-08-12T11:57:42;24.80;99.90
20479;DHT22;10398;52.490;13.434;2023-08-12T12:00:10;24.80;99.90
20479;DHT22;10398;52.490;13.434;2023-08-12T12:02:53;24.80;99.90
20479;DHT22;10398;52.490;13.434;2023-08-12T12:05:23;24.80;99.90
20479;DHT22;10398;52.490;13.434;2023-08-12T12:07:49;24.80;99.90
20479;DHT22;10398;52.490;13.434;2023-08-12T12:10:27;24.80;99.90
20479;DHT22;10398;52.490;13.434;2023-08-12T12:12:55;24.80;99.90
20479;DHT22;10398;52.490;13.434;2023-08-12T12:15:20;24.80;99.90
20479;DHT22;10398;52.490;13.434;2023-08-12T12:17:47;24.70;99.90
20479;DHT22;10398;52.490;13.434;2023-08-12T12:20:13;24.60;99.90
20479;DHT22;10398;52.490;13.434;2023-08-12T12:22:41;24.60;99.90
20479;DHT22;10398;52.490;13.434;2023-08-12T12:25:12;24.70;99.90
20479;DHT22;10398;52.490;13.434;2023-08-12T12:27:38;24.60;99.90
20479;DHT22;10398;52.490;13.434;2023-08-12T12:30:08;24.50;99.90
20479;DHT22;10398;52.490;13.434;2023-08-12T12:32:35;24.50;99.90
20479;DHT22;10398;52.490;13.434;2023-08-12T12:35:01;24.40;99.90
20479;DHT22;10398;52.490;13.434;2023-08-12T12:37:27;24.40;99.90
20479;DHT22;10398;52.490;13.434;2023-08-12T12:39:52;24.30;99.90
20479;DHT22;10398;52.490;13.434;2023-08-12T12:42:18;24.20;99.90
20479;DHT22;10398;52.490;13.434;2023-08-12T12:44:44;24.20;99.90
20479;DHT22;10398;52.490;13.434;2023-08-12T12:47:10;24.10;99.90
20479;DHT22;10398;52.490;13.434;2023-08-12T12:49:38;24.10;99.90
20479;DHT22;10398;52.490;13.434;2023-08-12T12:52:04;24.10;99.90
20479;DHT22;10398;52.490;13.434;2023-08-12T12:54:30;24.10;99.90
20479;DHT22;10398;52.490;13.434;2023-08-12T12:56:56;24.20;99.90
20479;DHT22;10398;52.490;13.434;2023-08-12T12:59:22;24.20;99.90
20479;DHT22;10398;52.490;13.434;2023-08-12T13:01:48;24.30;99.90
20479;DHT22;10398;52.490;13.434;2023-08-12T13:04:14;24.40;99.90
20479;DHT22;10398;52.490;13.434;2023-08-12T13:06:40;24.50;99.90
20479;DHT22;10398;52.490;13.434;2023-08-12T13:09:06;24.50;99.90
20479;DHT22;10398;52.490;13.434;2023-08-12T13:11:33;24.50;99.90
20479;DHT22;10398;52.490;13.434;2023-08-12T13:14:00;24.60;99.90
20479;DHT22;10398;52.490;13.434;2023-08-12T13:16:26;24.60;99.90
20479;DHT22;10398;52.490;13.434;2023-08-12T13:18:51;24.70;99.90
20479;DHT22;10398;52.490;13.434;2023-08-12T13:21:17;24.80;99.90
20479;DHT22;10398;52.490;13.434;2023-08-12T13:23:43;24.90;99.90
20479;DHT22;10398;52.490;13.434;2023-08-12T13:26:08;25.00;99.90
20479;DHT22;10398;52.490;13.434;2023-08-12T13:28:34;25.10;99.90
20479;DHT22;10398;52.490;13.434;2023-08-12T13:31:00;25.20;99.90
20479;DHT22;10398;52.490;13.434;2023-08-12T13:33:25;25.40;99.90
20479;DHT22;10398;52.490;13.434;2023-08-12T13:35:51;25.40;99.90
20479;DHT22;10398;52.490;13.434;2023-08-12T13:38:17;25.60;99.90
20479;DHT22;10398;52.490;13.434;2023-08-12T13:40:42;25.70;99.90
20479;DHT22;10398;52.490;13.434;2023-08-12T13:43:08;25.90;99.90
20479;DHT22;10398;52.490;13.434;2023-08-12T13:45:34;25.90;99.90
20479;DHT22;10398;52.490;13.434;2023-08-12T13:47:59;25.90;99.90
20479;DHT22;10398;52.490;13.434;2023-08-12T13:50:25;25.90;99.90
20479;DHT22;10398;52.490;13.434;2023-08-12T13:52:51;26.00;99.90
20479;DHT22;10398;52.490;13.434;2023-08-12T13:55:16;26.10;99.90
20479;DHT22;10398;52.490;13.434;2023-08-12T13:57:42;26.10;99.90
20479;DHT22;10398;52.490;13.434;2023-08-12T14:00:08;26.20;99.90
20479;DHT22;10398;52.490;13.434;2023-08-12T14:02:39;26.40;99.90
20479;DHT22;10398;52.490;13.434;2023-08-12T14:05:06;26.40;99.90
20479;DHT22;10398;52.490;13.434;2023-08-12T14:07:32;26.60;99.90
20479;DHT22;10398;52.490;13.434;2023-08-12T14:09:58;26.80;99.90
20479;DHT22;10398;52.490;13.434;2023-08-12T14:12:24;26.90;99.90
20479;DHT22;10398;52.490;13.434;2023-08-12T14:14:50;27.00;99.90
20479;DHT22;10398;52.490;13.434;2023-08-12T14:17:16;27.10;99.90
20479;DHT22;10398;52.490;13.434;2023-08-12T14:19:44;27.20;99.90
20479;DHT22;10398;52.490;13.434;2023-08-12T14:22:13;27.20;99.90
20479;DHT22;10398;52.490;13.434;2023-08-12T14:24:39;27.20;99.90
20479;DHT22;10398;52.490;13.434;2023-08-12T14:27:04;27.20;99.90
20479;DHT22;10398;52.490;13.434;2023-08-12T14:29:30;27.20;99.90
20479;DHT22;10398;52.490;13.434;2023-08-12T14:31:57;27.20;99.90
20479;DHT22;10398;52.490;13.434;2023-08-12T14:34:23;27.10;99.90
20479;DHT22;10398;52.490;13.434;2023-08-12T14:36:49;27.10;99.90
20479;DHT22;10398;52.490;13.434;2023-08-12T14:39:15;27.20;99.90
20479;DHT22;10398;52.490;13.434;2023-08-12T14:41:41;27.20;99.90
20479;DHT22;10398;52.490;13.434;2023-08-12T14:44:06;27.30;99.90
20479;DHT22;10398;52.490;13.434;2023-08-12T14:46:32;27.40;99.90
20479;DHT22;10398;52.490;13.434;2023-08-12T14:48:58;27.40;99.90
20479;DHT22;10398;52.490;13.434;2023-08-12T14:51:23;27.60;99.90
20479;DHT22;10398;52.490;13.434;2023-08-12T14:53:50;27.70;99.90
20479;DHT22;10398;52.490;13.434;2023-08-12T14:56:16;27.70;99.90
20479;DHT22;10398;52.490;13.434;2023-08-12T14:58:42;27.70;99.90
20479;DHT22;10398;52.490;13.434;2023-08-12T15:01:07;27.70;99.90
20479;DHT22;10398;52.490;13.434;2023-08-12T15:03:33;27.70;99.90
20479;DHT22;10398;52.490;13.434;2023-08-12T15:06:03;27.60;99.90
20479;DHT22;10398;52.490;13.434;2023-08-12T15:08:29;27.60;99.90
20479;DHT22;10398;52.490;13.434;2023-08-12T15:10:55;27.70;99.90
20479;DHT22;10398;52.490;13.434;2023-08-12T15:13:21;27.70;99.90
20479;DHT22;10398;52.490;13.434;2023-08-12T15:15:48;27.60;99.90
20479;DHT22;10398;52.490;13.434;2023-08-12T15:18:14;27.60;99.90
20479;DHT22;10398;52.490;13.434;2023-08-12T15:20:40;27.50;99.90
20479;DHT22;10398;52.490;13.434;2023-08-12T15:23:05;27.40;99.90
20479;DHT22;10398;52.490;13.434;2023-08-12T15:25:31;27.40;99.90